Gotham, WI (53540)

01:52 PM CDT die 26o March, anno 2017 (GMT -0500)
ME8443 | | Change Station
Active Advisory: Special Statement

Elev 1102 ft 43.23 °N, 90.37 °W | Updated 12 minutes ago

Aequaliter Nubila
Aequaliter Nubila
44.0 °F
Feels Like 44 °F
N
3.0
Ventus Variabilis Ventus from Magis Aquilo quam Eurus
Gusts 5.0 mph

Hodie
High -- | Low -- °F
--% Chance of Precip.
Yesterday
High -- | Low -- °F
Precip. -- in
Pressio 29.85 in
Visibilitas 5.0 milia passuum
Clouds Aequaliter Nubila 500 ft
Frigus Venti 44 °F
Frigus in quo Ros apparet 44 °F
Umor 99%
Rainfall 0.20 in
Snow Depth Not available.
6:53 AM 7:20 PM
Waning Crescent, 2% visible
METAR KLNR 261756Z AUTO 36004KT 5SM BR OVC005 07/05 A2985 RMK AO2 SLP107 60021 T00670050 10067 20044 56009
Pressio 29.85 in
Visibilitas 5.0 milia passuum
Clouds Aequaliter Nubila 500 ft
Frigus Venti 44 °F
Frigus in quo Ros apparet 44 °F
Umor 99%
Rainfall 0.20 in
Snow Depth Not available.
6:53 AM 7:20 PM
Waning Crescent, 2% visible
METAR KLNR 261756Z AUTO 36004KT 5SM BR OVC005 07/05 A2985 RMK AO2 SLP107 60021 T00670050 10067 20044 56009

Get Your Daily Forecast Email!

Thanks for signing up!

Be on the lookout for a verification email in your inbox.

You'll start receiving severe weather alerts in your inbox..

×

10-Day Weather Forecast

Almanac

Astronomy

Mar. 26, 2017 Rise Set
Actual Time
Civil Twilight
Nautical Twilight
Astronomical Twilight
Moon
Length Of Visible Light
Length of Day
Tomorrow will be .
, % of the Moon is Illuminated

Today's Extremes

State Highs State Lows

Community

WunderPhotos

Upload Photos

1,962,540 photos uploaded!

WunderBlog® & News

Nearby

Air Quality

  Air Quality AQ Index Pollutant
Not available.

Snow Depth

Station Depth Elevation

Earthquake Activity

City Distance Mag. Time & Date
Minimum magnitude displayed is 2.5.

Earthquake Activity

City Distance Mag. Time & Date
Minimum magnitude displayed is 2.5.

Coastal Water Temperatures

Locus Calor

Stations

Nearby Weather Stations

Station Location Temp Frigus Venti Frigus in quo Ros apparet Umor Ventus Precip. Elev Renovata Type
                   

Watches & Warnings

Special Statement
Issued: 12:02 PM CDT Mar. 26, 2017 – National Weather Service

... Patchy areas of dense fog this afternoon...

Patchy areas of dense fog will persist into the early afternoon.
This fog may reduce visibilities to as low as a quarter mile at
times. This will be especially the on the ridge tops of southeast
Minnesota, northeast Iowa, and western Wisconsin.

If traveling, be prepared for rapidly changing visibilities over
short distances. Slow down and exercise caution.


Boyne